TAM1602 SBPS-SBRJ
Flight info
| Callsign | TAM1602 |
|---|---|
| Flight time | 1h 22m |
| Altitude | 38000 |
| Route | EDPOX UZ95 MCA |
| Aircraft | A319/M-SDE3FGHIRWY/LB1 |
Departure
| Time | 2026-04-19 22:38 |
|---|---|
| Airport | Porto Seguro International Airport (SBPS) |
Arrival
| Time | 2026-04-20 00:00 |
|---|---|
| Airport | Santos Dumont Airport (SBRJ) |
| Time | Latitude | Longitude | Altitude | Speed | Heading |
|---|---|---|---|---|---|
| 2026-04-19 22:13 | -16.44110 | -39.08239 | 164 ft | 0 kts | 164° |
| 2026-04-19 22:31 | -16.44100 | -39.08242 | 164 ft | 2 kts | 163° |
| 2026-04-19 22:31 | -16.44085 | -39.08243 | 164 ft | 2 kts | 193° |
| 2026-04-19 22:32 | -16.44071 | -39.08237 | 164 ft | 2 kts | 216° |
| 2026-04-19 22:32 | -16.44060 | -39.08226 | 164 ft | 2 kts | 239° |
| 2026-04-19 22:32 | -16.44056 | -39.08218 | 164 ft | 1 kts | 253° |
| 2026-04-19 22:32 | -16.44055 | -39.08212 | 164 ft | 0 kts | 255° |
| 2026-04-19 22:34 | -16.44065 | -39.08247 | 164 ft | 10 kts | 253° |
| 2026-04-19 22:35 | -16.44025 | -39.08296 | 164 ft | 10 kts | 345° |
| 2026-04-19 22:35 | -16.43950 | -39.08321 | 164 ft | 11 kts | 329° |
| 2026-04-19 22:35 | -16.43940 | -39.08399 | 165 ft | 12 kts | 253° |
| 2026-04-19 22:35 | -16.43967 | -39.08492 | 165 ft | 14 kts | 252° |
| 2026-04-19 22:36 | -16.43992 | -39.08593 | 166 ft | 14 kts | 256° |
| 2026-04-19 22:36 | -16.44023 | -39.08701 | 166 ft | 18 kts | 251° |
| 2026-04-19 22:36 | -16.44062 | -39.08843 | 166 ft | 22 kts | 255° |
| 2026-04-19 22:36 | -16.44070 | -39.08961 | 166 ft | 10 kts | 286° |
| 2026-04-19 22:37 | -16.44089 | -39.08958 | 166 ft | 8 kts | 73° |
| 2026-04-19 22:37 | -16.44062 | -39.08856 | 166 ft | 38 kts | 75° |
| 2026-04-19 22:37 | -16.43919 | -39.08320 | 165 ft | 113 kts | 73° |
| 2026-04-19 22:37 | -16.43663 | -39.07347 | 342 ft | 154 kts | 75° |
| 2026-04-19 22:38 | -16.43377 | -39.06278 | 1032 ft | 157 kts | 73° |
| 2026-04-19 22:38 | -16.43062 | -39.05154 | 1645 ft | 169 kts | 73° |
| 2026-04-19 22:38 | -16.42744 | -39.03933 | 2169 ft | 187 kts | 82° |
| 2026-04-19 22:38 | -16.43002 | -39.02558 | 2663 ft | 210 kts | 123° |
| 2026-04-19 22:39 | -16.44157 | -39.01558 | 3325 ft | 228 kts | 159° |
| 2026-04-19 22:39 | -16.45799 | -39.01394 | 4021 ft | 245 kts | 183° |
| 2026-04-19 22:39 | -16.47568 | -39.01535 | 4688 ft | 263 kts | 184° |
| 2026-04-19 22:39 | -16.49396 | -39.01663 | 5549 ft | 271 kts | 184° |
| 2026-04-19 22:40 | -16.51282 | -39.01783 | 6562 ft | 273 kts | 184° |
| 2026-04-19 22:40 | -16.53185 | -39.01900 | 7525 ft | 275 kts | 184° |
| 2026-04-19 22:40 | -16.55111 | -39.02014 | 8425 ft | 279 kts | 183° |
| 2026-04-19 22:40 | -16.57041 | -39.02126 | 9266 ft | 283 kts | 183° |
| 2026-04-19 22:41 | -16.59014 | -39.02238 | 10080 ft | 288 kts | 183° |
| 2026-04-19 22:41 | -16.61061 | -39.02379 | 10689 ft | 299 kts | 186° |
| 2026-04-19 22:41 | -16.63167 | -39.02728 | 11105 ft | 315 kts | 192° |
| 2026-04-19 22:41 | -16.65304 | -39.03335 | 11755 ft | 322 kts | 197° |
| 2026-04-19 22:42 | -16.67464 | -39.04044 | 12485 ft | 325 kts | 198° |
| 2026-04-19 22:42 | -16.69618 | -39.04766 | 13184 ft | 328 kts | 198° |
| 2026-04-19 22:42 | -16.71778 | -39.05492 | 13855 ft | 331 kts | 199° |
| 2026-04-19 22:42 | -16.74007 | -39.06240 | 14509 ft | 335 kts | 199° |
| 2026-04-19 22:43 | -16.76239 | -39.06988 | 15166 ft | 338 kts | 199° |
| 2026-04-19 22:43 | -16.78471 | -39.07735 | 15789 ft | 342 kts | 199° |
| 2026-04-19 22:43 | -16.80763 | -39.08500 | 16403 ft | 345 kts | 199° |
| 2026-04-19 22:43 | -16.83045 | -39.09261 | 17021 ft | 348 kts | 199° |
| 2026-04-19 22:44 | -16.85367 | -39.10037 | 17625 ft | 351 kts | 199° |
| 2026-04-19 22:44 | -16.87731 | -39.10826 | 18220 ft | 355 kts | 199° |
| 2026-04-19 22:44 | -16.90076 | -39.11610 | 18783 ft | 358 kts | 199° |
| 2026-04-19 22:44 | -16.92454 | -39.12404 | 19357 ft | 361 kts | 200° |
| 2026-04-19 22:45 | -16.94888 | -39.13218 | 19942 ft | 364 kts | 200° |
| 2026-04-19 22:45 | -16.97310 | -39.14028 | 20491 ft | 367 kts | 200° |
| 2026-04-19 22:45 | -16.99733 | -39.14840 | 21025 ft | 370 kts | 200° |
| 2026-04-19 22:45 | -17.02215 | -39.15673 | 21537 ft | 374 kts | 200° |
| 2026-04-19 22:46 | -17.04707 | -39.16508 | 22045 ft | 377 kts | 200° |
| 2026-04-19 22:46 | -17.07236 | -39.17353 | 22554 ft | 380 kts | 200° |
| 2026-04-19 22:46 | -17.09752 | -39.18195 | 23051 ft | 383 kts | 201° |
| 2026-04-19 22:46 | -17.12297 | -39.19063 | 23585 ft | 384 kts | 202° |
| 2026-04-19 22:47 | -17.14797 | -39.20058 | 24099 ft | 385 kts | 206° |
| 2026-04-19 22:47 | -17.17249 | -39.21186 | 24586 ft | 386 kts | 207° |
| 2026-04-19 22:47 | -17.19715 | -39.22357 | 25056 ft | 389 kts | 208° |
| 2026-04-19 22:47 | -17.22179 | -39.23534 | 25519 ft | 392 kts | 208° |
| 2026-04-19 22:48 | -17.24647 | -39.24714 | 25986 ft | 394 kts | 208° |
| 2026-04-19 22:48 | -17.27165 | -39.25917 | 26448 ft | 396 kts | 208° |
| 2026-04-19 22:48 | -17.29693 | -39.27125 | 26890 ft | 399 kts | 208° |
| 2026-04-19 22:48 | -17.32213 | -39.28331 | 27342 ft | 401 kts | 208° |
| 2026-04-19 22:49 | -17.34765 | -39.29549 | 27793 ft | 403 kts | 208° |
| 2026-04-19 22:49 | -17.37333 | -39.30777 | 28227 ft | 405 kts | 208° |
| 2026-04-19 22:49 | -17.39908 | -39.32010 | 28659 ft | 407 kts | 208° |
| 2026-04-19 22:49 | -17.42484 | -39.33243 | 29068 ft | 410 kts | 209° |
| 2026-04-19 22:50 | -17.45092 | -39.34493 | 29490 ft | 412 kts | 208° |
| 2026-04-19 22:50 | -17.47682 | -39.35734 | 29920 ft | 414 kts | 208° |
| 2026-04-19 22:50 | -17.50306 | -39.36990 | 30361 ft | 415 kts | 208° |
| 2026-04-19 22:50 | -17.52964 | -39.38264 | 30784 ft | 416 kts | 208° |
| 2026-04-19 22:51 | -17.55605 | -39.39531 | 31171 ft | 418 kts | 208° |
| 2026-04-19 22:51 | -17.60916 | -39.42079 | 31912 ft | 422 kts | 208° |
| 2026-04-19 22:51 | -17.63590 | -39.43361 | 32281 ft | 424 kts | 208° |
| 2026-04-19 22:52 | -17.66293 | -39.44658 | 32772 ft | 423 kts | 208° |
| 2026-04-19 22:52 | -17.68953 | -39.45933 | 33310 ft | 420 kts | 208° |
| 2026-04-19 22:52 | -17.71574 | -39.47189 | 33880 ft | 417 kts | 208° |
| 2026-04-19 22:52 | -17.74223 | -39.48460 | 34404 ft | 415 kts | 209° |
| 2026-04-19 22:53 | -17.76850 | -39.49722 | 34921 ft | 413 kts | 209° |
| 2026-04-19 22:53 | -17.79437 | -39.50966 | 35404 ft | 411 kts | 209° |
| 2026-04-19 22:53 | -17.82041 | -39.52218 | 35861 ft | 409 kts | 209° |
| 2026-04-19 22:53 | -17.84639 | -39.53468 | 36262 ft | 408 kts | 209° |
| 2026-04-19 22:54 | -17.87224 | -39.54714 | 36560 ft | 409 kts | 210° |
| 2026-04-19 22:54 | -17.89818 | -39.55965 | 36832 ft | 410 kts | 210° |
| 2026-04-19 22:54 | -17.92386 | -39.57202 | 37091 ft | 411 kts | 210° |
| 2026-04-19 22:54 | -17.95001 | -39.58462 | 37359 ft | 412 kts | 210° |
| 2026-04-19 22:55 | -17.97627 | -39.59729 | 37598 ft | 413 kts | 210° |
| 2026-04-19 22:55 | -18.00231 | -39.60984 | 37822 ft | 414 kts | 210° |
| 2026-04-19 22:55 | -18.05505 | -39.63529 | 37909 ft | 416 kts | 210° |
| 2026-04-19 22:56 | -18.10752 | -39.66068 | 37916 ft | 416 kts | 210° |
| 2026-04-19 22:56 | -18.16046 | -39.68636 | 37920 ft | 416 kts | 210° |
| 2026-04-19 22:57 | -18.21346 | -39.71201 | 37915 ft | 417 kts | 210° |
| 2026-04-19 22:57 | -18.26625 | -39.73755 | 37918 ft | 418 kts | 210° |
| 2026-04-19 22:58 | -18.31906 | -39.76311 | 37917 ft | 418 kts | 210° |
| 2026-04-19 22:58 | -18.37204 | -39.78876 | 37914 ft | 418 kts | 210° |
| 2026-04-19 22:59 | -18.42503 | -39.81444 | 37913 ft | 418 kts | 210° |
| 2026-04-19 22:59 | -18.47772 | -39.84000 | 37916 ft | 418 kts | 210° |
| 2026-04-19 23:00 | -18.53064 | -39.86568 | 37918 ft | 419 kts | 210° |
| 2026-04-19 23:00 | -18.58359 | -39.89139 | 37912 ft | 418 kts | 210° |
| 2026-04-19 23:01 | -18.63652 | -39.91712 | 37918 ft | 418 kts | 210° |
| 2026-04-19 23:01 | -18.68934 | -39.94281 | 37926 ft | 418 kts | 210° |
| 2026-04-19 23:02 | -18.74225 | -39.96857 | 37930 ft | 417 kts | 209° |
| 2026-04-19 23:02 | -18.79510 | -39.99430 | 37941 ft | 418 kts | 209° |
| 2026-04-19 23:03 | -18.84785 | -40.02002 | 37941 ft | 418 kts | 210° |
| 2026-04-19 23:03 | -18.90068 | -40.04578 | 37941 ft | 418 kts | 209° |
| 2026-04-19 23:04 | -18.95355 | -40.07161 | 37942 ft | 418 kts | 209° |
| 2026-04-19 23:04 | -19.00661 | -40.09755 | 37947 ft | 418 kts | 209° |
| 2026-04-19 23:05 | -19.05945 | -40.12339 | 37954 ft | 418 kts | 209° |
| 2026-04-19 23:05 | -19.11249 | -40.14926 | 37959 ft | 418 kts | 209° |
| 2026-04-19 23:06 | -19.16553 | -40.17498 | 37951 ft | 418 kts | 209° |
| 2026-04-19 23:06 | -19.21843 | -40.20075 | 37949 ft | 418 kts | 209° |
| 2026-04-19 23:07 | -19.27129 | -40.22661 | 37959 ft | 419 kts | 209° |
| 2026-04-19 23:07 | -19.32416 | -40.25253 | 37954 ft | 418 kts | 209° |
| 2026-04-19 23:08 | -19.37713 | -40.27851 | 37960 ft | 418 kts | 209° |
| 2026-04-19 23:08 | -19.42977 | -40.30434 | 37951 ft | 418 kts | 209° |
| 2026-04-19 23:09 | -19.48288 | -40.33045 | 37954 ft | 418 kts | 209° |
| 2026-04-19 23:09 | -19.53561 | -40.35637 | 37957 ft | 418 kts | 209° |
| 2026-04-19 23:10 | -19.58822 | -40.38228 | 37961 ft | 418 kts | 209° |
| 2026-04-19 23:10 | -19.64117 | -40.40836 | 37977 ft | 418 kts | 208° |
| 2026-04-19 23:11 | -19.69401 | -40.43440 | 37986 ft | 418 kts | 209° |
| 2026-04-19 23:11 | -19.74695 | -40.46051 | 38005 ft | 418 kts | 209° |
| 2026-04-19 23:12 | -19.79955 | -40.48650 | 38005 ft | 418 kts | 209° |
| 2026-04-19 23:12 | -19.85236 | -40.51263 | 38014 ft | 418 kts | 209° |
| 2026-04-19 23:13 | -19.90516 | -40.53877 | 38026 ft | 419 kts | 208° |
| 2026-04-19 23:13 | -19.95803 | -40.56493 | 38034 ft | 418 kts | 208° |
| 2026-04-19 23:14 | -20.01085 | -40.59111 | 38034 ft | 418 kts | 208° |
| 2026-04-19 23:14 | -20.06344 | -40.61723 | 38032 ft | 419 kts | 208° |
| 2026-04-19 23:15 | -20.11650 | -40.64361 | 38025 ft | 419 kts | 208° |
| 2026-04-19 23:15 | -20.16902 | -40.66993 | 38030 ft | 417 kts | 209° |
| 2026-04-19 23:16 | -20.22189 | -40.69651 | 38026 ft | 418 kts | 209° |
| 2026-04-19 23:16 | -20.27438 | -40.72270 | 38024 ft | 419 kts | 209° |
| 2026-04-19 23:17 | -20.32727 | -40.74912 | 38029 ft | 419 kts | 208° |
| 2026-04-19 23:17 | -20.38029 | -40.77559 | 38039 ft | 420 kts | 208° |
| 2026-04-19 23:18 | -20.43325 | -40.80204 | 38044 ft | 419 kts | 208° |
| 2026-04-19 23:18 | -20.48579 | -40.82834 | 38050 ft | 419 kts | 208° |
| 2026-04-19 23:19 | -20.53858 | -40.85482 | 38052 ft | 419 kts | 208° |
| 2026-04-19 23:19 | -20.59137 | -40.88128 | 38045 ft | 419 kts | 208° |
| 2026-04-19 23:20 | -20.64446 | -40.90776 | 38035 ft | 419 kts | 208° |
| 2026-04-19 23:20 | -20.69702 | -40.93404 | 38028 ft | 419 kts | 208° |
| 2026-04-19 23:21 | -20.75018 | -40.96068 | 38015 ft | 421 kts | 208° |
| 2026-04-19 23:21 | -20.80291 | -40.98712 | 38002 ft | 420 kts | 208° |
| 2026-04-19 23:22 | -20.85611 | -41.01381 | 37993 ft | 420 kts | 208° |
| 2026-04-19 23:22 | -20.90923 | -41.04038 | 37989 ft | 420 kts | 208° |
| 2026-04-19 23:23 | -20.96222 | -41.06691 | 37987 ft | 420 kts | 208° |
| 2026-04-19 23:23 | -21.01491 | -41.09337 | 37991 ft | 421 kts | 208° |
| 2026-04-19 23:24 | -21.06806 | -41.12007 | 37988 ft | 421 kts | 208° |
| 2026-04-19 23:24 | -21.12119 | -41.14675 | 37988 ft | 421 kts | 208° |
| 2026-04-19 23:25 | -21.17436 | -41.17339 | 37986 ft | 421 kts | 208° |
| 2026-04-19 23:25 | -21.22758 | -41.20016 | 37978 ft | 421 kts | 208° |
| 2026-04-19 23:26 | -21.28067 | -41.22695 | 37970 ft | 421 kts | 208° |
| 2026-04-19 23:26 | -21.33347 | -41.25365 | 37971 ft | 421 kts | 208° |
| 2026-04-19 23:27 | -21.38665 | -41.28053 | 37971 ft | 422 kts | 208° |
| 2026-04-19 23:27 | -21.43990 | -41.30742 | 37970 ft | 422 kts | 208° |
| 2026-04-19 23:28 | -21.49292 | -41.33424 | 37970 ft | 422 kts | 208° |
| 2026-04-19 23:28 | -21.54598 | -41.36111 | 37971 ft | 423 kts | 208° |
| 2026-04-19 23:29 | -21.59927 | -41.38823 | 37965 ft | 422 kts | 208° |
| 2026-04-19 23:29 | -21.65241 | -41.41531 | 37961 ft | 422 kts | 208° |
| 2026-04-19 23:30 | -21.70568 | -41.44228 | 37972 ft | 422 kts | 208° |
| 2026-04-19 23:30 | -21.75885 | -41.46925 | 37977 ft | 422 kts | 208° |
| 2026-04-19 23:31 | -21.81204 | -41.49632 | 37913 ft | 424 kts | 208° |
| 2026-04-19 23:31 | -21.83868 | -41.50990 | 37483 ft | 422 kts | 207° |
| 2026-04-19 23:31 | -21.86486 | -41.52323 | 37045 ft | 417 kts | 207° |
| 2026-04-19 23:32 | -21.89099 | -41.53654 | 36514 ft | 414 kts | 207° |
| 2026-04-19 23:32 | -21.91689 | -41.54979 | 35943 ft | 412 kts | 207° |
| 2026-04-19 23:32 | -21.94296 | -41.56311 | 35262 ft | 412 kts | 207° |
| 2026-04-19 23:32 | -21.96878 | -41.57631 | 34633 ft | 411 kts | 207° |
| 2026-04-19 23:33 | -21.99474 | -41.58960 | 34018 ft | 410 kts | 207° |
| 2026-04-19 23:33 | -22.02071 | -41.60289 | 33410 ft | 412 kts | 207° |
| 2026-04-19 23:33 | -22.04668 | -41.61617 | 32835 ft | 415 kts | 207° |
| 2026-04-19 23:33 | -22.07259 | -41.62940 | 32246 ft | 417 kts | 207° |
| 2026-04-19 23:34 | -22.09899 | -41.64285 | 31649 ft | 416 kts | 207° |
| 2026-04-19 23:34 | -22.12486 | -41.65599 | 31242 ft | 411 kts | 208° |
| 2026-04-19 23:34 | -22.15111 | -41.66946 | 30852 ft | 410 kts | 208° |
| 2026-04-19 23:34 | -22.17668 | -41.68260 | 30438 ft | 408 kts | 208° |
| 2026-04-19 23:35 | -22.20234 | -41.69579 | 30004 ft | 405 kts | 208° |
| 2026-04-19 23:35 | -22.22754 | -41.70874 | 29567 ft | 401 kts | 208° |
| 2026-04-19 23:35 | -22.25281 | -41.72171 | 29151 ft | 398 kts | 208° |
| 2026-04-19 23:35 | -22.27762 | -41.73445 | 28743 ft | 395 kts | 208° |
| 2026-04-19 23:36 | -22.30210 | -41.74703 | 28302 ft | 392 kts | 208° |
| 2026-04-19 23:36 | -22.32686 | -41.75986 | 27848 ft | 388 kts | 209° |
| 2026-04-19 23:36 | -22.35044 | -41.77344 | 27380 ft | 384 kts | 212° |
| 2026-04-19 23:36 | -22.37309 | -41.78821 | 26904 ft | 381 kts | 214° |
| 2026-04-19 23:37 | -22.39561 | -41.80349 | 26404 ft | 379 kts | 214° |
| 2026-04-19 23:37 | -22.41791 | -41.81871 | 25925 ft | 376 kts | 214° |
| 2026-04-19 23:37 | -22.43990 | -41.83374 | 25441 ft | 374 kts | 214° |
| 2026-04-19 23:37 | -22.46204 | -41.84887 | 24957 ft | 372 kts | 214° |
| 2026-04-19 23:38 | -22.48375 | -41.86370 | 24473 ft | 370 kts | 214° |
| 2026-04-19 23:38 | -22.50558 | -41.87863 | 23983 ft | 369 kts | 214° |
| 2026-04-19 23:38 | -22.52704 | -41.89331 | 23500 ft | 367 kts | 213° |
| 2026-04-19 23:38 | -22.54885 | -41.90823 | 23015 ft | 366 kts | 213° |
| 2026-04-19 23:39 | -22.57009 | -41.92277 | 22559 ft | 364 kts | 213° |
| 2026-04-19 23:39 | -22.59167 | -41.93754 | 22097 ft | 362 kts | 213° |
| 2026-04-19 23:39 | -22.61272 | -41.95195 | 21658 ft | 360 kts | 213° |
| 2026-04-19 23:39 | -22.63401 | -41.96654 | 21214 ft | 358 kts | 213° |
| 2026-04-19 23:40 | -22.65477 | -41.98078 | 20785 ft | 356 kts | 213° |
| 2026-04-19 23:40 | -22.67564 | -41.99508 | 20363 ft | 354 kts | 213° |
| 2026-04-19 23:40 | -22.69658 | -42.00945 | 19939 ft | 352 kts | 213° |
| 2026-04-19 23:40 | -22.71703 | -42.02349 | 19523 ft | 350 kts | 213° |
| 2026-04-19 23:41 | -22.73748 | -42.03754 | 19187 ft | 346 kts | 213° |
| 2026-04-19 23:41 | -22.75796 | -42.05160 | 18825 ft | 343 kts | 213° |
| 2026-04-19 23:41 | -22.77807 | -42.06541 | 18454 ft | 342 kts | 213° |
| 2026-04-19 23:41 | -22.79797 | -42.07909 | 18109 ft | 339 kts | 214° |
| 2026-04-19 23:42 | -22.81597 | -42.09562 | 17736 ft | 336 kts | 229° |
| 2026-04-19 23:42 | -22.82851 | -42.11669 | 17363 ft | 334 kts | 245° |
| 2026-04-19 23:42 | -22.83629 | -42.14022 | 16910 ft | 334 kts | 251° |
| 2026-04-19 23:42 | -22.84321 | -42.16415 | 16553 ft | 331 kts | 251° |
| 2026-04-19 23:43 | -22.85003 | -42.18797 | 16178 ft | 328 kts | 251° |
| 2026-04-19 23:43 | -22.85676 | -42.21134 | 15801 ft | 326 kts | 251° |
| 2026-04-19 23:43 | -22.86351 | -42.23472 | 15411 ft | 324 kts | 251° |
| 2026-04-19 23:43 | -22.87029 | -42.25808 | 15005 ft | 322 kts | 251° |
| 2026-04-19 23:44 | -22.87694 | -42.28101 | 14600 ft | 321 kts | 251° |
| 2026-04-19 23:44 | -22.88364 | -42.30404 | 14212 ft | 318 kts | 251° |
| 2026-04-19 23:44 | -22.89031 | -42.32700 | 13815 ft | 317 kts | 251° |
| 2026-04-19 23:44 | -22.89690 | -42.34964 | 13420 ft | 315 kts | 250° |
| 2026-04-19 23:45 | -22.90345 | -42.37215 | 13019 ft | 313 kts | 251° |
| 2026-04-19 23:45 | -22.90996 | -42.39453 | 12637 ft | 311 kts | 251° |
| 2026-04-19 23:45 | -22.91649 | -42.41699 | 12258 ft | 309 kts | 251° |
| 2026-04-19 23:45 | -22.92283 | -42.43887 | 11873 ft | 308 kts | 251° |
| 2026-04-19 23:46 | -22.92929 | -42.46113 | 11483 ft | 306 kts | 251° |
| 2026-04-19 23:46 | -22.93564 | -42.48303 | 11108 ft | 304 kts | 251° |
| 2026-04-19 23:46 | -22.94196 | -42.50487 | 10731 ft | 302 kts | 251° |
| 2026-04-19 23:46 | -22.94823 | -42.52651 | 10375 ft | 299 kts | 251° |
| 2026-04-19 23:47 | -22.95442 | -42.54791 | 10182 ft | 305 kts | 251° |
| 2026-04-19 23:47 | -22.96081 | -42.56999 | 9977 ft | 310 kts | 251° |
| 2026-04-19 23:47 | -22.96752 | -42.59202 | 9605 ft | 307 kts | 250° |
| 2026-04-19 23:47 | -22.97435 | -42.61393 | 9214 ft | 305 kts | 250° |
| 2026-04-19 23:48 | -22.98111 | -42.63564 | 8830 ft | 304 kts | 250° |
| 2026-04-19 23:48 | -22.98778 | -42.65711 | 8548 ft | 298 kts | 250° |
| 2026-04-19 23:48 | -22.99434 | -42.67839 | 8193 ft | 290 kts | 250° |
| 2026-04-19 23:48 | -23.00061 | -42.69877 | 7778 ft | 282 kts | 250° |
| 2026-04-19 23:49 | -23.00673 | -42.71865 | 7384 ft | 274 kts | 251° |
| 2026-04-19 23:49 | -23.01263 | -42.73780 | 7033 ft | 264 kts | 251° |
| 2026-04-19 23:49 | -23.01833 | -42.75628 | 6701 ft | 255 kts | 251° |
| 2026-04-19 23:49 | -23.02386 | -42.77423 | 6386 ft | 247 kts | 251° |
| 2026-04-19 23:50 | -23.02925 | -42.79175 | 6003 ft | 243 kts | 252° |
| 2026-04-19 23:50 | -23.03135 | -42.80974 | 5593 ft | 241 kts | 276° |
| 2026-04-19 23:50 | -23.02595 | -42.82637 | 5457 ft | 229 kts | 301° |
| 2026-04-19 23:50 | -23.01667 | -42.83982 | 5453 ft | 212 kts | 306° |
| 2026-04-19 23:51 | -23.00754 | -42.85204 | 5238 ft | 207 kts | 307° |
| 2026-04-19 23:51 | -22.99854 | -42.86406 | 4980 ft | 202 kts | 306° |
| 2026-04-19 23:51 | -22.98998 | -42.87550 | 4818 ft | 186 kts | 306° |
| 2026-04-19 23:51 | -22.98217 | -42.88600 | 4560 ft | 172 kts | 306° |
| 2026-04-19 23:52 | -22.97498 | -42.89572 | 4346 ft | 158 kts | 306° |
| 2026-04-19 23:52 | -22.96835 | -42.90472 | 4186 ft | 149 kts | 306° |
| 2026-04-19 23:52 | -22.96185 | -42.91354 | 4187 ft | 150 kts | 305° |
| 2026-04-19 23:52 | -22.95528 | -42.92247 | 4159 ft | 150 kts | 305° |
| 2026-04-19 23:53 | -22.94885 | -42.93117 | 4140 ft | 147 kts | 305° |
| 2026-04-19 23:53 | -22.94270 | -42.93948 | 4081 ft | 134 kts | 305° |
| 2026-04-19 23:53 | -22.93694 | -42.94730 | 4064 ft | 132 kts | 305° |
| 2026-04-19 23:53 | -22.93121 | -42.95512 | 4048 ft | 132 kts | 305° |
| 2026-04-19 23:54 | -22.92551 | -42.96289 | 4025 ft | 132 kts | 305° |
| 2026-04-19 23:54 | -22.91999 | -42.97099 | 3995 ft | 132 kts | 303° |
| 2026-04-19 23:54 | -22.91464 | -42.97912 | 3948 ft | 132 kts | 302° |
| 2026-04-19 23:54 | -22.90933 | -42.98717 | 3864 ft | 131 kts | 303° |
| 2026-04-19 23:55 | -22.90399 | -42.99526 | 3785 ft | 131 kts | 302° |
| 2026-04-19 23:55 | -22.89866 | -43.00334 | 3702 ft | 131 kts | 302° |
| 2026-04-19 23:55 | -22.89335 | -43.01139 | 3604 ft | 131 kts | 302° |
| 2026-04-19 23:55 | -22.88803 | -43.01944 | 3355 ft | 129 kts | 302° |
| 2026-04-19 23:56 | -22.88278 | -43.02739 | 3185 ft | 129 kts | 302° |
| 2026-04-19 23:56 | -22.87748 | -43.03548 | 3035 ft | 140 kts | 301° |
| 2026-04-19 23:56 | -22.87336 | -43.04554 | 2856 ft | 151 kts | 284° |
| 2026-04-19 23:56 | -22.87064 | -43.05702 | 2641 ft | 161 kts | 281° |
| 2026-04-19 23:57 | -22.86802 | -43.06895 | 2409 ft | 162 kts | 281° |
| 2026-04-19 23:57 | -22.86538 | -43.08075 | 2183 ft | 161 kts | 281° |
| 2026-04-19 23:57 | -22.86268 | -43.09255 | 1966 ft | 161 kts | 282° |
| 2026-04-19 23:57 | -22.86001 | -43.10399 | 1741 ft | 151 kts | 282° |
| 2026-04-19 23:58 | -22.85751 | -43.11460 | 1535 ft | 138 kts | 282° |
| 2026-04-19 23:58 | -22.85528 | -43.12438 | 1299 ft | 129 kts | 279° |
| 2026-04-19 23:58 | -22.85451 | -43.13371 | 1083 ft | 124 kts | 266° |
| 2026-04-19 23:58 | -22.85575 | -43.14283 | 947 ft | 122 kts | 251° |
| 2026-04-19 23:59 | -22.85947 | -43.15113 | 870 ft | 122 kts | 231° |
| 2026-04-19 23:59 | -22.86551 | -43.15767 | 787 ft | 122 kts | 217° |
| 2026-04-19 23:59 | -22.87300 | -43.16184 | 729 ft | 122 kts | 197° |
| 2026-04-19 23:59 | -22.88139 | -43.16374 | 584 ft | 123 kts | 188° |
| 2026-04-20 00:00 | -22.88994 | -43.16419 | 328 ft | 121 kts | 179° |
| 2026-04-20 00:00 | -22.89846 | -43.16363 | 166 ft | 122 kts | 178° |
| 2026-04-20 00:00 | -22.90696 | -43.16311 | 31 ft | 118 kts | 178° |
| 2026-04-20 00:00 | -22.91269 | -43.16271 | 26 ft | 24 kts | 179° |
| 2026-04-20 00:01 | -22.91338 | -43.16378 | 26 ft | 17 kts | 265° |
| 2026-04-20 00:01 | -22.91344 | -43.16470 | 26 ft | 8 kts | 266° |
| 2026-04-20 00:01 | -22.91240 | -43.16527 | 27 ft | 9 kts | 306° |
| 2026-04-20 00:02 | -22.91237 | -43.16584 | 27 ft | 3 kts | 265° |
| 2026-04-20 00:02 | -22.91237 | -43.16587 | 27 ft | 0 kts | 266° |